sensor_id;sensor_type;location;lat;lon;timestamp;P1;durP1;ratioP1;P2;durP2;ratioP2
11837;SDS011;5978;51.020;6.764;2023-07-13T00:01:44;3.50;;;1.47;;
11837;SDS011;5978;51.020;6.764;2023-07-13T00:04:13;7.33;;;1.73;;
11837;SDS011;5978;51.020;6.764;2023-07-13T00:06:39;4.90;;;1.70;;
11837;SDS011;5978;51.020;6.764;2023-07-13T00:09:04;8.60;;;1.70;;
11837;SDS011;5978;51.020;6.764;2023-07-13T00:11:30;4.40;;;1.77;;
11837;SDS011;5978;51.020;6.764;2023-07-13T00:13:55;5.10;;;1.80;;
11837;SDS011;5978;51.020;6.764;2023-07-13T00:16:21;2.40;;;1.47;;
11837;SDS011;5978;51.020;6.764;2023-07-13T00:18:46;6.83;;;2.10;;
11837;SDS011;5978;51.020;6.764;2023-07-13T00:21:12;9.30;;;2.00;;
11837;SDS011;5978;51.020;6.764;2023-07-13T00:23:39;5.43;;;1.83;;
11837;SDS011;5978;51.020;6.764;2023-07-13T00:26:07;2.70;;;1.77;;
11837;SDS011;5978;51.020;6.764;2023-07-13T00:28:34;5.10;;;1.90;;
11837;SDS011;5978;51.020;6.764;2023-07-13T00:31:00;5.00;;;2.07;;
11837;SDS011;5978;51.020;6.764;2023-07-13T00:33:27;6.07;;;2.20;;
11837;SDS011;5978;51.020;6.764;2023-07-13T00:35:54;3.53;;;1.93;;
11837;SDS011;5978;51.020;6.764;2023-07-13T00:38:20;4.83;;;2.07;;
11837;SDS011;5978;51.020;6.764;2023-07-13T00:40:46;4.63;;;1.70;;
11837;SDS011;5978;51.020;6.764;2023-07-13T00:43:16;7.60;;;2.33;;
11837;SDS011;5978;51.020;6.764;2023-07-13T00:48:15;4.60;;;1.70;;
11837;SDS011;5978;51.020;6.764;2023-07-13T00:50:46;3.27;;;1.60;;
11837;SDS011;5978;51.020;6.764;2023-07-13T00:53:16;6.93;;;2.03;;
11837;SDS011;5978;51.020;6.764;2023-07-13T00:55:42;3.70;;;1.83;;
11837;SDS011;5978;51.020;6.764;2023-07-13T00:58:08;6.27;;;2.13;;
11837;SDS011;5978;51.020;6.764;2023-07-13T01:00:35;3.50;;;1.40;;
11837;SDS011;5978;51.020;6.764;2023-07-13T01:03:02;11.10;;;1.90;;
11837;SDS011;5978;51.020;6.764;2023-07-13T01:05:29;3.40;;;1.70;;
11837;SDS011;5978;51.020;6.764;2023-07-13T01:07:57;3.77;;;1.73;;
11837;SDS011;5978;51.020;6.764;2023-07-13T01:10:24;2.87;;;1.87;;
11837;SDS011;5978;51.020;6.764;2023-07-13T01:12:50;4.67;;;2.07;;
11837;SDS011;5978;51.020;6.764;2023-07-13T01:15:33;7.93;;;2.00;;
11837;SDS011;5978;51.020;6.764;2023-07-13T01:17:59;4.63;;;1.63;;
11837;SDS011;5978;51.020;6.764;2023-07-13T01:20:25;4.67;;;2.00;;
11837;SDS011;5978;51.020;6.764;2023-07-13T01:22:51;5.40;;;2.30;;
11837;SDS011;5978;51.020;6.764;2023-07-13T01:25:18;7.00;;;2.03;;
11837;SDS011;5978;51.020;6.764;2023-07-13T01:27:44;9.90;;;1.93;;
11837;SDS011;5978;51.020;6.764;2023-07-13T01:30:09;8.50;;;2.07;;
11837;SDS011;5978;51.020;6.764;2023-07-13T01:32:35;8.00;;;2.00;;
11837;SDS011;5978;51.020;6.764;2023-07-13T01:35:01;5.77;;;2.23;;
11837;SDS011;5978;51.020;6.764;2023-07-13T01:37:27;2.30;;;1.83;;
11837;SDS011;5978;51.020;6.764;2023-07-13T01:39:58;6.17;;;2.03;;
11837;SDS011;5978;51.020;6.764;2023-07-13T01:42:24;7.47;;;1.83;;
11837;SDS011;5978;51.020;6.764;2023-07-13T01:44:49;6.70;;;2.17;;
11837;SDS011;5978;51.020;6.764;2023-07-13T01:47:15;4.23;;;2.33;;
11837;SDS011;5978;51.020;6.764;2023-07-13T01:49:41;4.77;;;2.30;;
11837;SDS011;5978;51.020;6.764;2023-07-13T01:52:06;1.97;;;1.57;;
11837;SDS011;5978;51.020;6.764;2023-07-13T01:54:32;4.83;;;1.97;;
11837;SDS011;5978;51.020;6.764;2023-07-13T01:56:58;6.80;;;2.40;;
11837;SDS011;5978;51.020;6.764;2023-07-13T01:59:24;8.37;;;1.70;;
11837;SDS011;5978;51.020;6.764;2023-07-13T02:01:50;4.20;;;1.60;;
11837;SDS011;5978;51.020;6.764;2023-07-13T02:04:15;6.07;;;2.13;;
11837;SDS011;5978;51.020;6.764;2023-07-13T02:06:41;3.40;;;1.97;;
11837;SDS011;5978;51.020;6.764;2023-07-13T02:09:06;8.03;;;2.10;;
11837;SDS011;5978;51.020;6.764;2023-07-13T02:11:32;5.53;;;2.10;;
11837;SDS011;5978;51.020;6.764;2023-07-13T02:14:01;4.67;;;1.40;;
11837;SDS011;5978;51.020;6.764;2023-07-13T02:16:28;8.07;;;1.87;;
11837;SDS011;5978;51.020;6.764;2023-07-13T02:18:54;4.17;;;1.97;;
11837;SDS011;5978;51.020;6.764;2023-07-13T02:21:20;9.30;;;1.93;;
11837;SDS011;5978;51.020;6.764;2023-07-13T02:23:47;4.10;;;1.83;;
11837;SDS011;5978;51.020;6.764;2023-07-13T02:26:14;4.93;;;1.90;;
11837;SDS011;5978;51.020;6.764;2023-07-13T02:28:40;5.10;;;2.37;;
11837;SDS011;5978;51.020;6.764;2023-07-13T02:31:09;1.67;;;1.33;;
11837;SDS011;5978;51.020;6.764;2023-07-13T02:33:36;3.07;;;1.70;;
11837;SDS011;5978;51.020;6.764;2023-07-13T02:36:02;5.60;;;2.30;;
11837;SDS011;5978;51.020;6.764;2023-07-13T02:38:30;2.70;;;1.83;;
11837;SDS011;5978;51.020;6.764;2023-07-13T02:40:58;3.33;;;2.20;;
11837;SDS011;5978;51.020;6.764;2023-07-13T02:43:24;4.47;;;1.67;;
11837;SDS011;5978;51.020;6.764;2023-07-13T02:45:50;3.37;;;1.60;;
11837;SDS011;5978;51.020;6.764;2023-07-13T02:48:16;2.73;;;1.80;;
11837;SDS011;5978;51.020;6.764;2023-07-13T02:50:41;6.13;;;2.20;;
11837;SDS011;5978;51.020;6.764;2023-07-13T02:53:08;4.67;;;2.30;;
11837;SDS011;5978;51.020;6.764;2023-07-13T02:55:34;2.27;;;1.43;;
11837;SDS011;5978;51.020;6.764;2023-07-13T02:57:59;5.10;;;2.10;;
11837;SDS011;5978;51.020;6.764;2023-07-13T03:00:26;10.00;;;2.00;;
11837;SDS011;5978;51.020;6.764;2023-07-13T03:02:52;4.93;;;2.10;;
11837;SDS011;5978;51.020;6.764;2023-07-13T03:05:18;3.17;;;1.80;;
11837;SDS011;5978;51.020;6.764;2023-07-13T03:07:44;5.73;;;3.03;;
11837;SDS011;5978;51.020;6.764;2023-07-13T03:10:09;8.10;;;2.07;;
11837;SDS011;5978;51.020;6.764;2023-07-13T03:12:35;6.43;;;1.87;;
11837;SDS011;5978;51.020;6.764;2023-07-13T03:15:01;13.23;;;2.50;;
11837;SDS011;5978;51.020;6.764;2023-07-13T03:17:26;6.60;;;1.70;;
11837;SDS011;5978;51.020;6.764;2023-07-13T03:19:52;8.27;;;2.20;;
11837;SDS011;5978;51.020;6.764;2023-07-13T03:22:17;3.30;;;2.10;;
11837;SDS011;5978;51.020;6.764;2023-07-13T03:24:44;3.87;;;2.17;;
11837;SDS011;5978;51.020;6.764;2023-07-13T03:27:10;6.90;;;2.60;;
11837;SDS011;5978;51.020;6.764;2023-07-13T03:29:35;7.57;;;1.80;;
11837;SDS011;5978;51.020;6.764;2023-07-13T03:32:01;4.53;;;2.37;;
11837;SDS011;5978;51.020;6.764;2023-07-13T03:34:27;5.23;;;2.07;;
11837;SDS011;5978;51.020;6.764;2023-07-13T03:36:55;5.33;;;2.57;;
11837;SDS011;5978;51.020;6.764;2023-07-13T03:39:21;6.37;;;2.17;;
11837;SDS011;5978;51.020;6.764;2023-07-13T03:41:47;2.53;;;1.80;;
11837;SDS011;5978;51.020;6.764;2023-07-13T03:44:15;5.67;;;3.13;;
11837;SDS011;5978;51.020;6.764;2023-07-13T03:46:42;4.37;;;1.90;;
11837;SDS011;5978;51.020;6.764;2023-07-13T03:49:07;2.83;;;1.50;;
11837;SDS011;5978;51.020;6.764;2023-07-13T03:51:33;3.90;;;1.80;;
11837;SDS011;5978;51.020;6.764;2023-07-13T03:53:58;6.73;;;2.50;;
11837;SDS011;5978;51.020;6.764;2023-07-13T03:56:24;7.83;;;2.37;;
11837;SDS011;5978;51.020;6.764;2023-07-13T03:58:50;5.43;;;2.70;;
11837;SDS011;5978;51.020;6.764;2023-07-13T04:01:17;2.07;;;1.60;;
11837;SDS011;5978;51.020;6.764;2023-07-13T04:03:44;4.70;;;2.13;;
11837;SDS011;5978;51.020;6.764;2023-07-13T04:06:16;5.07;;;2.87;;
11837;SDS011;5978;51.020;6.764;2023-07-13T04:08:48;6.43;;;2.23;;
11837;SDS011;5978;51.020;6.764;2023-07-13T04:11:15;4.93;;;2.30;;
11837;SDS011;5978;51.020;6.764;2023-07-13T04:13:41;3.20;;;2.50;;
11837;SDS011;5978;51.020;6.764;2023-07-13T04:16:07;12.20;;;3.50;;
11837;SDS011;5978;51.020;6.764;2023-07-13T04:18:32;2.70;;;2.20;;
11837;SDS011;5978;51.020;6.764;2023-07-13T04:20:58;3.60;;;2.20;;
11837;SDS011;5978;51.020;6.764;2023-07-13T04:23:23;9.33;;;2.30;;
11837;SDS011;5978;51.020;6.764;2023-07-13T04:25:51;2.57;;;2.00;;
11837;SDS011;5978;51.020;6.764;2023-07-13T04:28:18;4.23;;;2.40;;
11837;SDS011;5978;51.020;6.764;2023-07-13T04:30:47;2.90;;;2.27;;
11837;SDS011;5978;51.020;6.764;2023-07-13T04:33:13;9.67;;;2.70;;
11837;SDS011;5978;51.020;6.764;2023-07-13T04:35:39;3.37;;;2.30;;
11837;SDS011;5978;51.020;6.764;2023-07-13T04:38:05;3.50;;;2.50;;
11837;SDS011;5978;51.020;6.764;2023-07-13T04:40:31;4.97;;;2.10;;
11837;SDS011;5978;51.020;6.764;2023-07-13T04:42:56;6.00;;;2.00;;
11837;SDS011;5978;51.020;6.764;2023-07-13T04:45:22;6.93;;;2.60;;
11837;SDS011;5978;51.020;6.764;2023-07-13T04:47:49;3.73;;;1.77;;
11837;SDS011;5978;51.020;6.764;2023-07-13T04:50:15;13.40;;;2.43;;
11837;SDS011;5978;51.020;6.764;2023-07-13T04:52:44;2.40;;;2.10;;
11837;SDS011;5978;51.020;6.764;2023-07-13T04:55:10;4.10;;;2.33;;
11837;SDS011;5978;51.020;6.764;2023-07-13T04:57:36;3.70;;;1.63;;
11837;SDS011;5978;51.020;6.764;2023-07-13T05:00:02;6.67;;;2.50;;
11837;SDS011;5978;51.020;6.764;2023-07-13T05:02:31;5.60;;;2.67;;
11837;SDS011;5978;51.020;6.764;2023-07-13T05:04:57;5.83;;;3.07;;
11837;SDS011;5978;51.020;6.764;2023-07-13T05:07:23;5.40;;;2.80;;
11837;SDS011;5978;51.020;6.764;2023-07-13T05:09:49;8.77;;;2.80;;
11837;SDS011;5978;51.020;6.764;2023-07-13T05:12:15;5.43;;;2.57;;
11837;SDS011;5978;51.020;6.764;2023-07-13T05:14:40;6.67;;;2.80;;
11837;SDS011;5978;51.020;6.764;2023-07-13T05:17:06;6.00;;;2.57;;
11837;SDS011;5978;51.020;6.764;2023-07-13T05:19:31;7.83;;;2.10;;
11837;SDS011;5978;51.020;6.764;2023-07-13T05:21:57;4.20;;;2.20;;
11837;SDS011;5978;51.020;6.764;2023-07-13T05:24:22;4.50;;;2.23;;
11837;SDS011;5978;51.020;6.764;2023-07-13T05:26:48;5.93;;;2.10;;
11837;SDS011;5978;51.020;6.764;2023-07-13T05:29:13;4.23;;;2.00;;
11837;SDS011;5978;51.020;6.764;2023-07-13T05:31:39;3.20;;;2.53;;
11837;SDS011;5978;51.020;6.764;2023-07-13T05:34:05;5.83;;;2.30;;
11837;SDS011;5978;51.020;6.764;2023-07-13T05:36:30;7.83;;;2.30;;
11837;SDS011;5978;51.020;6.764;2023-07-13T05:38:56;9.67;;;2.70;;
11837;SDS011;5978;51.020;6.764;2023-07-13T05:41:21;5.87;;;2.80;;
11837;SDS011;5978;51.020;6.764;2023-07-13T05:43:47;6.00;;;2.13;;
11837;SDS011;5978;51.020;6.764;2023-07-13T05:46:12;7.43;;;2.63;;
11837;SDS011;5978;51.020;6.764;2023-07-13T05:48:38;6.03;;;2.70;;
11837;SDS011;5978;51.020;6.764;2023-07-13T05:51:03;4.63;;;2.30;;
11837;SDS011;5978;51.020;6.764;2023-07-13T05:53:29;8.33;;;2.97;;
11837;SDS011;5978;51.020;6.764;2023-07-13T05:55:55;4.30;;;3.93;;
11837;SDS011;5978;51.020;6.764;2023-07-13T05:58:20;5.73;;;2.40;;
11837;SDS011;5978;51.020;6.764;2023-07-13T06:00:46;5.53;;;2.17;;
11837;SDS011;5978;51.020;6.764;2023-07-13T06:03:13;3.47;;;2.63;;
11837;SDS011;5978;51.020;6.764;2023-07-13T06:05:39;6.47;;;2.73;;
11837;SDS011;5978;51.020;6.764;2023-07-13T06:08:05;7.93;;;3.60;;
11837;SDS011;5978;51.020;6.764;2023-07-13T06:10:35;3.70;;;2.80;;
11837;SDS011;5978;51.020;6.764;2023-07-13T06:13:01;11.03;;;3.63;;
11837;SDS011;5978;51.020;6.764;2023-07-13T06:15:28;9.23;;;3.00;;
11837;SDS011;5978;51.020;6.764;2023-07-13T06:17:54;5.07;;;3.57;;
11837;SDS011;5978;51.020;6.764;2023-07-13T06:20:19;10.47;;;2.77;;
11837;SDS011;5978;51.020;6.764;2023-07-13T06:22:45;7.00;;;3.20;;
11837;SDS011;5978;51.020;6.764;2023-07-13T06:25:10;7.03;;;3.20;;
11837;SDS011;5978;51.020;6.764;2023-07-13T06:27:36;7.03;;;3.70;;
11837;SDS011;5978;51.020;6.764;2023-07-13T06:30:01;11.67;;;2.60;;
11837;SDS011;5978;51.020;6.764;2023-07-13T06:32:28;8.50;;;2.80;;
11837;SDS011;5978;51.020;6.764;2023-07-13T06:34:53;9.40;;;3.20;;
11837;SDS011;5978;51.020;6.764;2023-07-13T06:37:19;7.63;;;3.30;;
11837;SDS011;5978;51.020;6.764;2023-07-13T06:39:44;4.90;;;2.80;;
11837;SDS011;5978;51.020;6.764;2023-07-13T06:42:10;9.27;;;3.30;;
11837;SDS011;5978;51.020;6.764;2023-07-13T06:44:36;5.43;;;3.70;;
11837;SDS011;5978;51.020;6.764;2023-07-13T06:47:01;6.33;;;3.27;;
11837;SDS011;5978;51.020;6.764;2023-07-13T06:49:27;9.27;;;3.20;;
11837;SDS011;5978;51.020;6.764;2023-07-13T06:51:53;6.63;;;3.13;;
11837;SDS011;5978;51.020;6.764;2023-07-13T06:54:18;6.27;;;3.23;;
11837;SDS011;5978;51.020;6.764;2023-07-13T06:56:44;5.17;;;2.53;;
11837;SDS011;5978;51.020;6.764;2023-07-13T06:59:09;7.83;;;3.33;;
11837;SDS011;5978;51.020;6.764;2023-07-13T07:01:35;7.33;;;3.37;;
11837;SDS011;5978;51.020;6.764;2023-07-13T07:04:00;9.97;;;3.30;;
11837;SDS011;5978;51.020;6.764;2023-07-13T07:06:26;12.50;;;4.20;;
11837;SDS011;5978;51.020;6.764;2023-07-13T07:08:52;4.30;;;3.37;;
11837;SDS011;5978;51.020;6.764;2023-07-13T07:11:19;8.23;;;3.57;;
11837;SDS011;5978;51.020;6.764;2023-07-13T07:13:47;3.80;;;3.20;;
11837;SDS011;5978;51.020;6.764;2023-07-13T07:16:14;7.67;;;3.23;;
11837;SDS011;5978;51.020;6.764;2023-07-13T07:18:40;11.07;;;3.30;;
11837;SDS011;5978;51.020;6.764;2023-07-13T07:21:05;8.40;;;2.97;;
11837;SDS011;5978;51.020;6.764;2023-07-13T07:23:31;8.67;;;3.27;;
11837;SDS011;5978;51.020;6.764;2023-07-13T07:25:58;5.53;;;3.67;;
11837;SDS011;5978;51.020;6.764;2023-07-13T07:28:24;8.80;;;3.17;;
11837;SDS011;5978;51.020;6.764;2023-07-13T07:30:52;8.20;;;3.67;;
11837;SDS011;5978;51.020;6.764;2023-07-13T07:33:18;6.90;;;3.30;;
11837;SDS011;5978;51.020;6.764;2023-07-13T07:35:44;9.03;;;3.10;;
11837;SDS011;5978;51.020;6.764;2023-07-13T07:38:09;11.03;;;3.60;;
11837;SDS011;5978;51.020;6.764;2023-07-13T07:40:38;7.93;;;3.97;;
11837;SDS011;5978;51.020;6.764;2023-07-13T07:43:05;6.93;;;3.40;;
11837;SDS011;5978;51.020;6.764;2023-07-13T07:45:31;5.67;;;3.23;;
11837;SDS011;5978;51.020;6.764;2023-07-13T07:47:57;6.30;;;3.70;;
11837;SDS011;5978;51.020;6.764;2023-07-13T07:50:24;5.63;;;3.77;;
11837;SDS011;5978;51.020;6.764;2023-07-13T07:52:50;10.07;;;4.03;;
11837;SDS011;5978;51.020;6.764;2023-07-13T07:55:16;9.63;;;4.57;;
11837;SDS011;5978;51.020;6.764;2023-07-13T07:57:42;6.30;;;3.73;;
11837;SDS011;5978;51.020;6.764;2023-07-13T08:00:07;11.60;;;3.27;;
11837;SDS011;5978;51.020;6.764;2023-07-13T08:02:33;5.10;;;3.83;;
11837;SDS011;5978;51.020;6.764;2023-07-13T08:04:59;11.13;;;4.50;;
11837;SDS011;5978;51.020;6.764;2023-07-13T08:07:24;8.70;;;4.20;;
11837;SDS011;5978;51.020;6.764;2023-07-13T08:09:53;7.03;;;3.20;;
11837;SDS011;5978;51.020;6.764;2023-07-13T08:12:19;10.00;;;4.07;;
11837;SDS011;5978;51.020;6.764;2023-07-13T08:14:44;9.03;;;4.10;;
11837;SDS011;5978;51.020;6.764;2023-07-13T08:17:10;8.77;;;3.73;;
11837;SDS011;5978;51.020;6.764;2023-07-13T08:19:35;6.40;;;3.37;;
11837;SDS011;5978;51.020;6.764;2023-07-13T08:22:01;6.90;;;3.43;;
11837;SDS011;5978;51.020;6.764;2023-07-13T08:24:27;8.93;;;2.80;;
11837;SDS011;5978;51.020;6.764;2023-07-13T08:26:52;4.93;;;3.10;;
11837;SDS011;5978;51.020;6.764;2023-07-13T08:29:18;7.23;;;3.90;;
11837;SDS011;5978;51.020;6.764;2023-07-13T08:31:43;5.33;;;2.83;;
11837;SDS011;5978;51.020;6.764;2023-07-13T08:34:09;5.33;;;3.07;;
11837;SDS011;5978;51.020;6.764;2023-07-13T08:36:35;7.17;;;2.90;;
11837;SDS011;5978;51.020;6.764;2023-07-13T08:39:01;9.37;;;3.40;;
11837;SDS011;5978;51.020;6.764;2023-07-13T08:41:27;6.23;;;3.43;;
11837;SDS011;5978;51.020;6.764;2023-07-13T08:43:56;9.50;;;3.50;;
11837;SDS011;5978;51.020;6.764;2023-07-13T08:46:37;7.60;;;2.87;;
11837;SDS011;5978;51.020;6.764;2023-07-13T08:49:16;12.80;;;3.30;;
11837;SDS011;5978;51.020;6.764;2023-07-13T08:51:49;9.13;;;3.13;;
11837;SDS011;5978;51.020;6.764;2023-07-13T08:54:20;3.97;;;2.50;;
11837;SDS011;5978;51.020;6.764;2023-07-13T08:56:48;10.80;;;3.10;;
11837;SDS011;5978;51.020;6.764;2023-07-13T08:59:18;8.53;;;3.00;;
11837;SDS011;5978;51.020;6.764;2023-07-13T09:04:35;9.63;;;3.40;;
11837;SDS011;5978;51.020;6.764;2023-07-13T09:07:23;6.47;;;2.97;;
11837;SDS011;5978;51.020;6.764;2023-07-13T09:10:16;8.60;;;2.50;;
11837;SDS011;5978;51.020;6.764;2023-07-13T09:15:32;6.00;;;3.13;;
11837;SDS011;5978;51.020;6.764;2023-07-13T09:21:08;9.63;;;2.97;;
11837;SDS011;5978;51.020;6.764;2023-07-13T09:23:40;4.40;;;3.03;;
11837;SDS011;5978;51.020;6.764;2023-07-13T09:28:41;7.70;;;3.80;;
11837;SDS011;5978;51.020;6.764;2023-07-13T09:31:16;6.60;;;2.77;;
11837;SDS011;5978;51.020;6.764;2023-07-13T09:33:47;5.27;;;2.50;;
11837;SDS011;5978;51.020;6.764;2023-07-13T09:41:57;6.67;;;2.87;;
11837;SDS011;5978;51.020;6.764;2023-07-13T09:44:30;6.73;;;3.07;;
11837;SDS011;5978;51.020;6.764;2023-07-13T09:46:56;5.97;;;2.50;;
11837;SDS011;5978;51.020;6.764;2023-07-13T09:49:28;5.03;;;2.30;;
11837;SDS011;5978;51.020;6.764;2023-07-13T09:52:04;5.40;;;2.43;;
11837;SDS011;5978;51.020;6.764;2023-07-13T09:54:35;5.73;;;2.20;;
11837;SDS011;5978;51.020;6.764;2023-07-13T09:57:03;7.10;;;3.63;;
11837;SDS011;5978;51.020;6.764;2023-07-13T09:59:39;5.50;;;2.90;;
11837;SDS011;5978;51.020;6.764;2023-07-13T10:05:14;3.00;;;2.30;;
11837;SDS011;5978;51.020;6.764;2023-07-13T10:07:44;5.27;;;2.90;;
11837;SDS011;5978;51.020;6.764;2023-07-13T10:10:18;7.03;;;2.60;;
11837;SDS011;5978;51.020;6.764;2023-07-13T10:12:48;6.10;;;2.30;;
11837;SDS011;5978;51.020;6.764;2023-07-13T10:15:15;7.27;;;2.20;;
11837;SDS011;5978;51.020;6.764;2023-07-13T10:17:44;3.60;;;2.43;;
11837;SDS011;5978;51.020;6.764;2023-07-13T10:20:11;3.87;;;2.70;;
11837;SDS011;5978;51.020;6.764;2023-07-13T10:25:34;4.80;;;2.60;;
11837;SDS011;5978;51.020;6.764;2023-07-13T10:28:06;10.20;;;3.23;;
11837;SDS011;5978;51.020;6.764;2023-07-13T10:30:38;6.00;;;2.47;;
11837;SDS011;5978;51.020;6.764;2023-07-13T10:33:10;9.20;;;2.70;;
11837;SDS011;5978;51.020;6.764;2023-07-13T10:35:37;4.87;;;2.20;;
11837;SDS011;5978;51.020;6.764;2023-07-13T10:38:06;4.20;;;2.93;;
11837;SDS011;5978;51.020;6.764;2023-07-13T10:43:13;6.80;;;2.20;;
11837;SDS011;5978;51.020;6.764;2023-07-13T10:45:46;9.67;;;2.80;;
11837;SDS011;5978;51.020;6.764;2023-07-13T10:48:15;4.73;;;3.00;;
11837;SDS011;5978;51.020;6.764;2023-07-13T10:50:43;6.47;;;2.93;;
11837;SDS011;5978;51.020;6.764;2023-07-13T10:53:18;3.77;;;2.57;;
11837;SDS011;5978;51.020;6.764;2023-07-13T10:56:05;4.13;;;2.67;;
11837;SDS011;5978;51.020;6.764;2023-07-13T10:58:44;6.77;;;2.90;;
11837;SDS011;5978;51.020;6.764;2023-07-13T11:01:14;5.87;;;2.80;;
11837;SDS011;5978;51.020;6.764;2023-07-13T11:03:54;3.90;;;2.57;;
11837;SDS011;5978;51.020;6.764;2023-07-13T11:09:30;4.70;;;1.90;;
11837;SDS011;5978;51.020;6.764;2023-07-13T11:11:44;4.40;;;2.23;;
11837;SDS011;5978;51.020;6.764;2023-07-13T11:14:26;4.67;;;2.43;;
11837;SDS011;5978;51.020;6.764;2023-07-13T11:17:00;6.53;;;3.10;;
11837;SDS011;5978;51.020;6.764;2023-07-13T11:19:50;8.97;;;2.60;;
11837;SDS011;5978;51.020;6.764;2023-07-13T11:22:21;7.00;;;2.27;;
11837;SDS011;5978;51.020;6.764;2023-07-13T11:24:59;7.80;;;2.87;;
11837;SDS011;5978;51.020;6.764;2023-07-13T11:27:40;3.23;;;2.50;;
11837;SDS011;5978;51.020;6.764;2023-07-13T11:35:51;8.13;;;2.67;;
11837;SDS011;5978;51.020;6.764;2023-07-13T11:38:29;3.30;;;1.93;;
11837;SDS011;5978;51.020;6.764;2023-07-13T11:41:04;6.50;;;2.50;;
11837;SDS011;5978;51.020;6.764;2023-07-13T11:43:42;3.23;;;2.17;;
11837;SDS011;5978;51.020;6.764;2023-07-13T11:46:20;6.50;;;2.60;;
11837;SDS011;5978;51.020;6.764;2023-07-13T11:48:48;3.63;;;2.60;;
11837;SDS011;5978;51.020;6.764;2023-07-13T11:51:23;11.20;;;2.90;;
11837;SDS011;5978;51.020;6.764;2023-07-13T11:53:53;4.93;;;1.87;;
11837;SDS011;5978;51.020;6.764;2023-07-13T11:56:22;6.00;;;2.50;;
11837;SDS011;5978;51.020;6.764;2023-07-13T11:58:52;4.37;;;2.60;;
11837;SDS011;5978;51.020;6.764;2023-07-13T12:01:24;4.40;;;2.27;;
11837;SDS011;5978;51.020;6.764;2023-07-13T12:03:57;3.20;;;2.00;;
11837;SDS011;5978;51.020;6.764;2023-07-13T12:06:29;4.73;;;2.50;;
11837;SDS011;5978;51.020;6.764;2023-07-13T12:08:57;3.27;;;2.10;;
11837;SDS011;5978;51.020;6.764;2023-07-13T12:11:24;4.47;;;2.10;;
11837;SDS011;5978;51.020;6.764;2023-07-13T12:13:50;7.43;;;2.40;;
11837;SDS011;5978;51.020;6.764;2023-07-13T12:18:55;6.53;;;2.70;;
11837;SDS011;5978;51.020;6.764;2023-07-13T12:21:23;3.37;;;2.20;;
11837;SDS011;5978;51.020;6.764;2023-07-13T12:23:57;3.10;;;2.00;;
11837;SDS011;5978;51.020;6.764;2023-07-13T12:26:23;4.37;;;2.23;;
11837;SDS011;5978;51.020;6.764;2023-07-13T12:28:54;5.97;;;1.97;;
11837;SDS011;5978;51.020;6.764;2023-07-13T12:31:35;5.33;;;2.17;;
11837;SDS011;5978;51.020;6.764;2023-07-13T12:34:13;6.20;;;2.30;;
11837;SDS011;5978;51.020;6.764;2023-07-13T12:39:46;6.57;;;2.30;;
11837;SDS011;5978;51.020;6.764;2023-07-13T12:42:18;8.00;;;2.80;;
11837;SDS011;5978;51.020;6.764;2023-07-13T12:44:56;6.37;;;2.47;;
11837;SDS011;5978;51.020;6.764;2023-07-13T12:47:41;3.10;;;1.80;;
11837;SDS011;5978;51.020;6.764;2023-07-13T12:50:18;4.03;;;2.17;;
11837;SDS011;5978;51.020;6.764;2023-07-13T12:52:53;4.70;;;2.30;;
11837;SDS011;5978;51.020;6.764;2023-07-13T12:55:21;2.70;;;1.40;;
11837;SDS011;5978;51.020;6.764;2023-07-13T12:57:51;3.20;;;1.80;;
11837;SDS011;5978;51.020;6.764;2023-07-13T13:02:55;2.17;;;1.90;;
11837;SDS011;5978;51.020;6.764;2023-07-13T13:05:22;3.17;;;2.20;;
11837;SDS011;5978;51.020;6.764;2023-07-13T13:07:51;3.10;;;1.43;;
11837;SDS011;5978;51.020;6.764;2023-07-13T13:10:17;3.77;;;1.67;;
11837;SDS011;5978;51.020;6.764;2023-07-13T13:12:43;6.03;;;2.40;;
11837;SDS011;5978;51.020;6.764;2023-07-13T13:15:09;3.10;;;1.67;;
11837;SDS011;5978;51.020;6.764;2023-07-13T13:17:36;6.00;;;1.67;;
11837;SDS011;5978;51.020;6.764;2023-07-13T13:20:16;4.20;;;1.93;;
11837;SDS011;5978;51.020;6.764;2023-07-13T13:22:43;4.10;;;1.67;;
11837;SDS011;5978;51.020;6.764;2023-07-13T13:25:12;3.83;;;1.73;;
11837;SDS011;5978;51.020;6.764;2023-07-13T13:27:40;6.40;;;1.60;;
11837;SDS011;5978;51.020;6.764;2023-07-13T13:30:16;1.63;;;1.50;;
11837;SDS011;5978;51.020;6.764;2023-07-13T13:32:43;6.50;;;1.80;;
11837;SDS011;5978;51.020;6.764;2023-07-13T13:35:14;4.00;;;1.70;;
11837;SDS011;5978;51.020;6.764;2023-07-13T13:37:45;4.07;;;2.00;;
11837;SDS011;5978;51.020;6.764;2023-07-13T13:40:16;5.80;;;1.77;;
11837;SDS011;5978;51.020;6.764;2023-07-13T13:42:45;4.63;;;1.77;;
11837;SDS011;5978;51.020;6.764;2023-07-13T13:45:11;4.40;;;1.57;;
11837;SDS011;5978;51.020;6.764;2023-07-13T13:47:37;2.53;;;1.60;;
11837;SDS011;5978;51.020;6.764;2023-07-13T13:50:17;2.57;;;1.70;;
11837;SDS011;5978;51.020;6.764;2023-07-13T13:52:45;5.30;;;2.37;;
11837;SDS011;5978;51.020;6.764;2023-07-13T13:55:20;5.37;;;2.03;;
11837;SDS011;5978;51.020;6.764;2023-07-13T13:57:49;3.70;;;2.10;;
11837;SDS011;5978;51.020;6.764;2023-07-13T14:00:15;3.67;;;1.87;;
11837;SDS011;5978;51.020;6.764;2023-07-13T14:02:42;3.47;;;1.83;;
11837;SDS011;5978;51.020;6.764;2023-07-13T14:05:16;5.70;;;1.87;;
11837;SDS011;5978;51.020;6.764;2023-07-13T14:07:46;4.10;;;2.03;;
11837;SDS011;5978;51.020;6.764;2023-07-13T14:10:13;3.90;;;1.63;;
11837;SDS011;5978;51.020;6.764;2023-07-13T14:12:41;1.73;;;1.30;;
11837;SDS011;5978;51.020;6.764;2023-07-13T14:15:30;3.43;;;2.30;;
11837;SDS011;5978;51.020;6.764;2023-07-13T14:17:58;4.73;;;2.50;;
11837;SDS011;5978;51.020;6.764;2023-07-13T14:20:25;5.10;;;1.70;;
11837;SDS011;5978;51.020;6.764;2023-07-13T14:22:53;3.53;;;1.63;;
11837;SDS011;5978;51.020;6.764;2023-07-13T14:25:20;4.83;;;2.03;;
11837;SDS011;5978;51.020;6.764;2023-07-13T14:27:47;3.70;;;1.60;;
11837;SDS011;5978;51.020;6.764;2023-07-13T14:30:17;3.67;;;1.60;;
11837;SDS011;5978;51.020;6.764;2023-07-13T14:32:45;2.17;;;1.83;;
11837;SDS011;5978;51.020;6.764;2023-07-13T14:35:11;3.20;;;1.60;;
11837;SDS011;5978;51.020;6.764;2023-07-13T14:37:39;3.30;;;1.83;;
11837;SDS011;5978;51.020;6.764;2023-07-13T14:40:16;4.17;;;1.93;;
11837;SDS011;5978;51.020;6.764;2023-07-13T14:42:44;3.10;;;1.90;;
11837;SDS011;5978;51.020;6.764;2023-07-13T14:45:19;3.00;;;1.50;;
11837;SDS011;5978;51.020;6.764;2023-07-13T14:47:45;2.57;;;1.37;;
11837;SDS011;5978;51.020;6.764;2023-07-13T14:52:42;3.67;;;2.10;;
11837;SDS011;5978;51.020;6.764;2023-07-13T14:55:12;5.43;;;2.00;;
11837;SDS011;5978;51.020;6.764;2023-07-13T14:57:40;4.33;;;1.90;;
11837;SDS011;5978;51.020;6.764;2023-07-13T15:00:24;3.80;;;1.80;;
11837;SDS011;5978;51.020;6.764;2023-07-13T15:02:51;3.87;;;1.60;;
11837;SDS011;5978;51.020;6.764;2023-07-13T15:05:24;3.37;;;2.00;;
11837;SDS011;5978;51.020;6.764;2023-07-13T15:07:52;2.80;;;2.00;;
11837;SDS011;5978;51.020;6.764;2023-07-13T15:10:26;3.20;;;1.97;;
11837;SDS011;5978;51.020;6.764;2023-07-13T15:12:58;2.90;;;2.10;;
11837;SDS011;5978;51.020;6.764;2023-07-13T15:15:29;2.87;;;2.00;;
11837;SDS011;5978;51.020;6.764;2023-07-13T15:17:58;3.10;;;1.63;;
11837;SDS011;5978;51.020;6.764;2023-07-13T15:22:55;3.23;;;1.63;;
11837;SDS011;5978;51.020;6.764;2023-07-13T15:25:23;8.23;;;2.47;;
11837;SDS011;5978;51.020;6.764;2023-07-13T15:27:50;10.40;;;2.27;;
11837;SDS011;5978;51.020;6.764;2023-07-13T15:30:17;8.60;;;2.17;;
11837;SDS011;5978;51.020;6.764;2023-07-13T15:32:43;3.73;;;2.40;;
11837;SDS011;5978;51.020;6.764;2023-07-13T15:35:13;3.40;;;1.80;;
11837;SDS011;5978;51.020;6.764;2023-07-13T15:37:41;5.97;;;2.60;;
11837;SDS011;5978;51.020;6.764;2023-07-13T15:40:07;5.00;;;2.73;;
11837;SDS011;5978;51.020;6.764;2023-07-13T15:42:33;3.83;;;3.00;;
11837;SDS011;5978;51.020;6.764;2023-07-13T15:45:01;5.70;;;2.37;;
11837;SDS011;5978;51.020;6.764;2023-07-13T15:47:27;6.53;;;2.50;;
11837;SDS011;5978;51.020;6.764;2023-07-13T15:49:52;2.23;;;2.03;;
11837;SDS011;5978;51.020;6.764;2023-07-13T15:52:19;6.80;;;3.03;;
11837;SDS011;5978;51.020;6.764;2023-07-13T15:54:48;4.70;;;2.77;;
11837;SDS011;5978;51.020;6.764;2023-07-13T15:57:15;3.83;;;2.63;;